SKSP/ADZ METAR and TAF weather

Enter ICAO airport designator
Station Type Date Time Source
SKSP METAR 2021/03/05 13:00 UTC NOAA

SKSP 051300Z 05007KT 9999 FEW018 26/20 Q1014 RMK A2995


Station Type Date Time Source
SKSP Decoded METAR 2021/03/05 13:00 UTC NOAA

San Andres Isla / Sesquicentenario, Colombia (SKSP) 12-35N 081-43W 6M
Mar 05, 2021 - 08:00 AM EST / 2021.03.05 1300 UTC
Wind: from the NE (050 degrees) at 8 MPH (7 KT):0
Visibility: greater than 7 mile(s):0
Sky conditions: mostly clear
Temperature: 78 F (26 C)
Dew Point: 68 F (20 C)
Relative Humidity: 69%
Pressure (altimeter): 29.94 in. Hg (1014 hPa)
ob: SKSP 051300Z 05007KT 9999 FEW018 26/20 Q1014 RMK A2995
cycle: 13

Station Type Date Time Source
SKSP TAF 2021/03/05 12:44 UTC NOAA

TAF SKSP 051030Z 0512/0612 04010KT 9999 FEW017 SCT090 TX30/0519Z TN25/0610Z

Example: see airport list